sensor_id;sensor_type;location;lat;lon;timestamp;P1;durP1;ratioP1;P2;durP2;ratioP2
59442;SDS011;45247;47.466;19.004;2022-09-19T00:01:51;2.30;;;0.90;;
59442;SDS011;45247;47.466;19.004;2022-09-19T00:04:22;0.80;;;0.70;;
59442;SDS011;45247;47.466;19.004;2022-09-19T00:06:51;1.33;;;0.90;;
59442;SDS011;45247;47.466;19.004;2022-09-19T00:09:21;2.22;;;0.80;;
59442;SDS011;45247;47.466;19.004;2022-09-19T00:11:50;2.05;;;0.70;;
59442;SDS011;45247;47.466;19.004;2022-09-19T00:14:21;2.38;;;1.00;;
59442;SDS011;45247;47.466;19.004;2022-09-19T00:16:54;2.65;;;0.90;;
59442;SDS011;45247;47.466;19.004;2022-09-19T00:19:24;1.25;;;0.80;;
59442;SDS011;45247;47.466;19.004;2022-09-19T00:21:53;2.25;;;0.90;;
59442;SDS011;45247;47.466;19.004;2022-09-19T00:24:23;1.42;;;0.70;;
59442;SDS011;45247;47.466;19.004;2022-09-19T00:27:09;1.08;;;0.75;;
59442;SDS011;45247;47.466;19.004;2022-09-19T00:29:40;1.13;;;0.80;;
59442;SDS011;45247;47.466;19.004;2022-09-19T00:32:08;1.75;;;0.77;;
59442;SDS011;45247;47.466;19.004;2022-09-19T00:34:39;1.33;;;0.80;;
59442;SDS011;45247;47.466;19.004;2022-09-19T00:37:09;2.08;;;0.80;;
59442;SDS011;45247;47.466;19.004;2022-09-19T00:39:38;1.35;;;0.82;;
59442;SDS011;45247;47.466;19.004;2022-09-19T00:42:09;0.60;;;0.60;;
59442;SDS011;45247;47.466;19.004;2022-09-19T00:44:53;1.20;;;0.70;;
59442;SDS011;45247;47.466;19.004;2022-09-19T00:47:26;5.15;;;1.60;;
59442;SDS011;45247;47.466;19.004;2022-09-19T00:50:01;3.83;;;1.00;;
59442;SDS011;45247;47.466;19.004;2022-09-19T00:52:34;2.13;;;1.27;;
59442;SDS011;45247;47.466;19.004;2022-09-19T00:55:10;2.10;;;0.70;;
59442;SDS011;45247;47.466;19.004;2022-09-19T00:57:40;1.30;;;0.80;;
59442;SDS011;45247;47.466;19.004;2022-09-19T01:00:22;0.80;;;0.70;;
59442;SDS011;45247;47.466;19.004;2022-09-19T01:02:50;0.60;;;0.60;;
59442;SDS011;45247;47.466;19.004;2022-09-19T01:05:19;1.60;;;0.90;;
59442;SDS011;45247;47.466;19.004;2022-09-19T01:08:01;2.65;;;0.80;;
59442;SDS011;45247;47.466;19.004;2022-09-19T01:10:45;1.77;;;0.70;;
59442;SDS011;45247;47.466;19.004;2022-09-19T01:13:24;1.15;;;0.63;;
59442;SDS011;45247;47.466;19.004;2022-09-19T01:16:07;2.93;;;1.17;;
59442;SDS011;45247;47.466;19.004;2022-09-19T01:18:46;4.38;;;0.70;;
59442;SDS011;45247;47.466;19.004;2022-09-19T01:21:21;1.67;;;0.88;;
59442;SDS011;45247;47.466;19.004;2022-09-19T01:30:12;2.40;;;0.80;;
59442;SDS011;45247;47.466;19.004;2022-09-19T01:32:43;2.87;;;0.70;;
59442;SDS011;45247;47.466;19.004;2022-09-19T01:35:19;1.92;;;0.80;;
59442;SDS011;45247;47.466;19.004;2022-09-19T01:37:52;1.17;;;0.80;;
59442;SDS011;45247;47.466;19.004;2022-09-19T01:40:30;2.30;;;0.90;;
59442;SDS011;45247;47.466;19.004;2022-09-19T01:43:00;0.68;;;0.68;;
59442;SDS011;45247;47.466;19.004;2022-09-19T01:45:30;1.88;;;0.70;;
59442;SDS011;45247;47.466;19.004;2022-09-19T01:48:05;1.27;;;0.90;;
59442;SDS011;45247;47.466;19.004;2022-09-19T01:50:58;1.00;;;0.68;;
59442;SDS011;45247;47.466;19.004;2022-09-19T01:53:41;2.97;;;0.70;;
59442;SDS011;45247;47.466;19.004;2022-09-19T01:56:25;0.75;;;0.65;;
59442;SDS011;45247;47.466;19.004;2022-09-19T01:59:05;2.03;;;1.13;;
59442;SDS011;45247;47.466;19.004;2022-09-19T02:01:48;2.80;;;0.80;;
59442;SDS011;45247;47.466;19.004;2022-09-19T02:04:23;1.40;;;0.70;;
59442;SDS011;45247;47.466;19.004;2022-09-19T02:06:58;2.03;;;0.70;;
59442;SDS011;45247;47.466;19.004;2022-09-19T02:09:34;1.70;;;0.68;;
59442;SDS011;45247;47.466;19.004;2022-09-19T02:12:11;1.60;;;0.73;;
59442;SDS011;45247;47.466;19.004;2022-09-19T02:14:43;2.90;;;1.47;;
59442;SDS011;45247;47.466;19.004;2022-09-19T02:17:19;1.70;;;1.20;;
59442;SDS011;45247;47.466;19.004;2022-09-19T02:19:51;1.55;;;0.95;;
59442;SDS011;45247;47.466;19.004;2022-09-19T02:22:24;1.38;;;0.80;;
59442;SDS011;45247;47.466;19.004;2022-09-19T02:24:57;1.23;;;0.75;;
59442;SDS011;45247;47.466;19.004;2022-09-19T02:27:29;0.75;;;0.68;;
59442;SDS011;45247;47.466;19.004;2022-09-19T02:30:05;1.00;;;0.70;;
59442;SDS011;45247;47.466;19.004;2022-09-19T02:32:37;2.07;;;1.00;;
59442;SDS011;45247;47.466;19.004;2022-09-19T02:35:14;1.10;;;0.80;;
59442;SDS011;45247;47.466;19.004;2022-09-19T02:37:44;1.13;;;0.70;;
59442;SDS011;45247;47.466;19.004;2022-09-19T02:40:18;1.00;;;0.68;;
59442;SDS011;45247;47.466;19.004;2022-09-19T02:42:51;1.27;;;0.85;;
59442;SDS011;45247;47.466;19.004;2022-09-19T02:45:25;0.95;;;0.73;;
59442;SDS011;45247;47.466;19.004;2022-09-19T02:48:01;0.95;;;0.80;;
59442;SDS011;45247;47.466;19.004;2022-09-19T02:50:33;2.60;;;0.90;;
59442;SDS011;45247;47.466;19.004;2022-09-19T02:53:08;1.02;;;0.80;;
59442;SDS011;45247;47.466;19.004;2022-09-19T02:55:41;1.00;;;0.90;;
59442;SDS011;45247;47.466;19.004;2022-09-19T02:58:15;1.90;;;0.90;;
59442;SDS011;45247;47.466;19.004;2022-09-19T03:00:45;2.80;;;1.00;;
59442;SDS011;45247;47.466;19.004;2022-09-19T03:03:20;2.22;;;1.00;;
59442;SDS011;45247;47.466;19.004;2022-09-19T03:06:09;7.47;;;1.00;;
59442;SDS011;45247;47.466;19.004;2022-09-19T03:08:40;1.48;;;0.90;;
59442;SDS011;45247;47.466;19.004;2022-09-19T03:11:12;3.67;;;1.00;;
59442;SDS011;45247;47.466;19.004;2022-09-19T03:13:42;2.28;;;1.10;;
59442;SDS011;45247;47.466;19.004;2022-09-19T03:16:13;1.75;;;1.20;;
59442;SDS011;45247;47.466;19.004;2022-09-19T03:18:45;2.42;;;1.13;;
59442;SDS011;45247;47.466;19.004;2022-09-19T03:21:18;2.20;;;1.27;;
59442;SDS011;45247;47.466;19.004;2022-09-19T03:23:50;1.58;;;1.30;;
59442;SDS011;45247;47.466;19.004;2022-09-19T03:26:21;1.15;;;1.00;;
59442;SDS011;45247;47.466;19.004;2022-09-19T03:28:54;2.05;;;1.13;;
59442;SDS011;45247;47.466;19.004;2022-09-19T03:31:22;1.30;;;1.00;;
59442;SDS011;45247;47.466;19.004;2022-09-19T03:33:52;2.35;;;1.27;;
59442;SDS011;45247;47.466;19.004;2022-09-19T03:36:22;2.30;;;1.00;;
59442;SDS011;45247;47.466;19.004;2022-09-19T03:38:50;4.82;;;1.30;;
59442;SDS011;45247;47.466;19.004;2022-09-19T03:41:20;1.23;;;1.00;;
59442;SDS011;45247;47.466;19.004;2022-09-19T03:43:48;1.73;;;0.93;;
59442;SDS011;45247;47.466;19.004;2022-09-19T03:46:18;2.60;;;1.20;;
59442;SDS011;45247;47.466;19.004;2022-09-19T03:48:47;3.28;;;1.30;;
59442;SDS011;45247;47.466;19.004;2022-09-19T03:51:17;2.35;;;1.20;;
59442;SDS011;45247;47.466;19.004;2022-09-19T03:53:45;1.02;;;0.90;;
59442;SDS011;45247;47.466;19.004;2022-09-19T03:56:14;2.10;;;1.25;;
59442;SDS011;45247;47.466;19.004;2022-09-19T03:58:43;3.05;;;1.45;;
59442;SDS011;45247;47.466;19.004;2022-09-19T04:01:11;2.15;;;1.30;;
59442;SDS011;45247;47.466;19.004;2022-09-19T04:03:46;2.42;;;1.30;;
59442;SDS011;45247;47.466;19.004;2022-09-19T04:06:14;2.63;;;1.20;;
59442;SDS011;45247;47.466;19.004;2022-09-19T04:08:44;2.00;;;1.20;;
59442;SDS011;45247;47.466;19.004;2022-09-19T04:11:12;1.90;;;1.10;;
59442;SDS011;45247;47.466;19.004;2022-09-19T04:13:40;1.92;;;1.20;;
59442;SDS011;45247;47.466;19.004;2022-09-19T04:16:08;1.95;;;1.30;;
59442;SDS011;45247;47.466;19.004;2022-09-19T04:18:37;1.55;;;1.00;;
59442;SDS011;45247;47.466;19.004;2022-09-19T04:21:12;4.70;;;1.63;;
59442;SDS011;45247;47.466;19.004;2022-09-19T04:23:41;2.60;;;1.52;;
59442;SDS011;45247;47.466;19.004;2022-09-19T04:26:11;3.55;;;1.20;;
59442;SDS011;45247;47.466;19.004;2022-09-19T04:28:39;2.08;;;1.27;;
59442;SDS011;45247;47.466;19.004;2022-09-19T04:31:08;3.63;;;1.50;;
59442;SDS011;45247;47.466;19.004;2022-09-19T04:33:39;1.77;;;1.15;;
59442;SDS011;45247;47.466;19.004;2022-09-19T04:36:07;2.47;;;1.23;;
59442;SDS011;45247;47.466;19.004;2022-09-19T04:38:35;4.68;;;1.15;;
59442;SDS011;45247;47.466;19.004;2022-09-19T04:41:04;1.55;;;1.08;;
59442;SDS011;45247;47.466;19.004;2022-09-19T04:43:34;2.25;;;1.20;;
59442;SDS011;45247;47.466;19.004;2022-09-19T04:46:02;2.15;;;1.30;;
59442;SDS011;45247;47.466;19.004;2022-09-19T04:48:32;2.88;;;1.40;;
59442;SDS011;45247;47.466;19.004;2022-09-19T04:51:01;2.97;;;1.10;;
59442;SDS011;45247;47.466;19.004;2022-09-19T04:53:31;4.05;;;1.20;;
59442;SDS011;45247;47.466;19.004;2022-09-19T04:56:00;1.90;;;1.08;;
59442;SDS011;45247;47.466;19.004;2022-09-19T04:58:29;1.90;;;0.93;;
59442;SDS011;45247;47.466;19.004;2022-09-19T05:00:58;1.48;;;0.80;;
59442;SDS011;45247;47.466;19.004;2022-09-19T05:03:26;3.50;;;0.98;;
59442;SDS011;45247;47.466;19.004;2022-09-19T05:05:57;1.27;;;0.93;;
59442;SDS011;45247;47.466;19.004;2022-09-19T05:08:26;3.13;;;1.00;;
59442;SDS011;45247;47.466;19.004;2022-09-19T05:10:57;2.10;;;1.20;;
59442;SDS011;45247;47.466;19.004;2022-09-19T05:13:27;2.95;;;1.50;;
59442;SDS011;45247;47.466;19.004;2022-09-19T05:15:57;3.70;;;1.70;;
59442;SDS011;45247;47.466;19.004;2022-09-19T05:18:28;3.72;;;1.50;;
59442;SDS011;45247;47.466;19.004;2022-09-19T05:21:02;3.85;;;1.70;;
59442;SDS011;45247;47.466;19.004;2022-09-19T05:23:31;2.92;;;1.65;;
59442;SDS011;45247;47.466;19.004;2022-09-19T05:26:01;3.30;;;1.70;;
59442;SDS011;45247;47.466;19.004;2022-09-19T05:28:31;3.47;;;1.58;;
59442;SDS011;45247;47.466;19.004;2022-09-19T05:31:00;2.28;;;1.55;;
59442;SDS011;45247;47.466;19.004;2022-09-19T05:36:01;1.10;;;1.00;;
59442;SDS011;45247;47.466;19.004;2022-09-19T05:38:30;1.98;;;1.20;;
59442;SDS011;45247;47.466;19.004;2022-09-19T05:41:00;2.00;;;1.25;;
59442;SDS011;45247;47.466;19.004;2022-09-19T05:43:29;2.47;;;1.60;;
59442;SDS011;45247;47.466;19.004;2022-09-19T05:45:57;1.88;;;1.10;;
59442;SDS011;45247;47.466;19.004;2022-09-19T05:48:27;1.45;;;1.13;;
59442;SDS011;45247;47.466;19.004;2022-09-19T05:50:56;3.53;;;1.10;;
59442;SDS011;45247;47.466;19.004;2022-09-19T05:53:24;1.80;;;1.10;;
59442;SDS011;45247;47.466;19.004;2022-09-19T05:56:10;3.40;;;0.98;;
59442;SDS011;45247;47.466;19.004;2022-09-19T05:58:38;3.08;;;1.45;;
59442;SDS011;45247;47.466;19.004;2022-09-19T06:01:07;2.15;;;1.23;;
59442;SDS011;45247;47.466;19.004;2022-09-19T06:03:37;2.30;;;1.20;;
59442;SDS011;45247;47.466;19.004;2022-09-19T06:06:06;3.88;;;1.27;;
59442;SDS011;45247;47.466;19.004;2022-09-19T06:08:38;2.10;;;1.30;;
59442;SDS011;45247;47.466;19.004;2022-09-19T06:11:08;3.33;;;1.95;;
59442;SDS011;45247;47.466;19.004;2022-09-19T06:13:36;2.60;;;1.10;;
59442;SDS011;45247;47.466;19.004;2022-09-19T06:16:22;2.67;;;1.13;;
59442;SDS011;45247;47.466;19.004;2022-09-19T06:18:52;2.85;;;1.30;;
59442;SDS011;45247;47.466;19.004;2022-09-19T06:21:20;1.48;;;1.13;;
59442;SDS011;45247;47.466;19.004;2022-09-19T06:23:48;4.25;;;1.70;;
59442;SDS011;45247;47.466;19.004;2022-09-19T06:26:16;2.38;;;1.20;;
59442;SDS011;45247;47.466;19.004;2022-09-19T06:28:44;4.47;;;2.00;;
59442;SDS011;45247;47.466;19.004;2022-09-19T06:31:13;5.65;;;1.80;;
59442;SDS011;45247;47.466;19.004;2022-09-19T06:33:42;3.60;;;1.58;;
59442;SDS011;45247;47.466;19.004;2022-09-19T06:36:12;3.88;;;1.40;;
59442;SDS011;45247;47.466;19.004;2022-09-19T06:38:41;1.83;;;1.23;;
59442;SDS011;45247;47.466;19.004;2022-09-19T06:41:09;3.90;;;1.40;;
59442;SDS011;45247;47.466;19.004;2022-09-19T06:43:37;2.25;;;1.30;;
59442;SDS011;45247;47.466;19.004;2022-09-19T06:46:05;1.92;;;1.27;;
59442;SDS011;45247;47.466;19.004;2022-09-19T06:48:35;2.50;;;1.05;;
59442;SDS011;45247;47.466;19.004;2022-09-19T06:51:04;1.60;;;0.82;;
59442;SDS011;45247;47.466;19.004;2022-09-19T06:53:33;1.67;;;1.10;;
59442;SDS011;45247;47.466;19.004;2022-09-19T06:56:01;2.13;;;1.40;;
59442;SDS011;45247;47.466;19.004;2022-09-19T06:58:29;2.28;;;1.10;;
59442;SDS011;45247;47.466;19.004;2022-09-19T07:00:59;1.77;;;0.93;;
59442;SDS011;45247;47.466;19.004;2022-09-19T07:03:27;5.57;;;1.10;;
59442;SDS011;45247;47.466;19.004;2022-09-19T07:05:56;1.60;;;1.00;;
59442;SDS011;45247;47.466;19.004;2022-09-19T07:08:25;5.22;;;1.10;;
59442;SDS011;45247;47.466;19.004;2022-09-19T07:10:56;6.18;;;1.20;;
59442;SDS011;45247;47.466;19.004;2022-09-19T07:13:24;1.80;;;0.90;;
59442;SDS011;45247;47.466;19.004;2022-09-19T07:15:57;1.48;;;0.90;;
59442;SDS011;45247;47.466;19.004;2022-09-19T07:18:27;2.78;;;1.10;;
59442;SDS011;45247;47.466;19.004;2022-09-19T07:20:58;1.95;;;1.10;;
59442;SDS011;45247;47.466;19.004;2022-09-19T07:23:26;1.75;;;0.82;;
59442;SDS011;45247;47.466;19.004;2022-09-19T07:25:56;1.73;;;0.90;;
59442;SDS011;45247;47.466;19.004;2022-09-19T07:28:24;1.75;;;1.00;;
59442;SDS011;45247;47.466;19.004;2022-09-19T07:30:53;1.75;;;0.95;;
59442;SDS011;45247;47.466;19.004;2022-09-19T07:33:21;1.80;;;1.00;;
59442;SDS011;45247;47.466;19.004;2022-09-19T07:35:50;1.40;;;0.98;;
59442;SDS011;45247;47.466;19.004;2022-09-19T07:38:21;2.55;;;0.90;;
59442;SDS011;45247;47.466;19.004;2022-09-19T07:40:50;2.13;;;1.00;;
59442;SDS011;45247;47.466;19.004;2022-09-19T07:43:20;3.55;;;1.35;;
59442;SDS011;45247;47.466;19.004;2022-09-19T07:45:50;3.03;;;1.10;;
59442;SDS011;45247;47.466;19.004;2022-09-19T07:48:19;3.80;;;1.73;;
59442;SDS011;45247;47.466;19.004;2022-09-19T07:50:48;1.55;;;1.00;;
59442;SDS011;45247;47.466;19.004;2022-09-19T07:53:23;2.85;;;1.08;;
59442;SDS011;45247;47.466;19.004;2022-09-19T07:55:51;8.30;;;1.50;;
59442;SDS011;45247;47.466;19.004;2022-09-19T07:58:22;4.80;;;1.27;;
59442;SDS011;45247;47.466;19.004;2022-09-19T08:00:52;1.50;;;0.95;;
59442;SDS011;45247;47.466;19.004;2022-09-19T08:03:20;2.05;;;1.25;;
59442;SDS011;45247;47.466;19.004;2022-09-19T08:05:50;3.60;;;1.20;;
59442;SDS011;45247;47.466;19.004;2022-09-19T08:08:20;1.63;;;0.90;;
59442;SDS011;45247;47.466;19.004;2022-09-19T08:10:49;2.53;;;1.23;;
59442;SDS011;45247;47.466;19.004;2022-09-19T08:13:17;1.27;;;0.80;;
59442;SDS011;45247;47.466;19.004;2022-09-19T08:15:49;0.82;;;0.68;;
59442;SDS011;45247;47.466;19.004;2022-09-19T08:18:18;0.50;;;0.50;;
59442;SDS011;45247;47.466;19.004;2022-09-19T08:20:48;1.48;;;0.80;;
59442;SDS011;45247;47.466;19.004;2022-09-19T08:23:17;1.40;;;0.75;;
59442;SDS011;45247;47.466;19.004;2022-09-19T08:25:47;2.05;;;0.82;;
59442;SDS011;45247;47.466;19.004;2022-09-19T08:28:18;1.90;;;0.77;;
59442;SDS011;45247;47.466;19.004;2022-09-19T08:30:49;1.95;;;0.80;;
59442;SDS011;45247;47.466;19.004;2022-09-19T08:33:17;5.88;;;0.80;;
59442;SDS011;45247;47.466;19.004;2022-09-19T08:35:45;1.40;;;0.77;;
59442;SDS011;45247;47.466;19.004;2022-09-19T08:38:13;1.90;;;0.95;;
59442;SDS011;45247;47.466;19.004;2022-09-19T08:40:52;1.13;;;0.60;;
59442;SDS011;45247;47.466;19.004;2022-09-19T08:43:34;3.05;;;0.90;;
59442;SDS011;45247;47.466;19.004;2022-09-19T08:46:12;4.38;;;0.80;;
59442;SDS011;45247;47.466;19.004;2022-09-19T08:48:48;1.17;;;0.93;;
59442;SDS011;45247;47.466;19.004;2022-09-19T08:51:23;1.75;;;0.65;;
59442;SDS011;45247;47.466;19.004;2022-09-19T08:53:56;2.28;;;0.80;;
59442;SDS011;45247;47.466;19.004;2022-09-19T08:56:29;0.63;;;0.50;;
59442;SDS011;45247;47.466;19.004;2022-09-19T08:58:58;1.45;;;0.80;;
59442;SDS011;45247;47.466;19.004;2022-09-19T09:01:31;1.75;;;0.88;;
59442;SDS011;45247;47.466;19.004;2022-09-19T09:04:07;1.77;;;0.80;;
59442;SDS011;45247;47.466;19.004;2022-09-19T09:06:44;4.65;;;1.15;;
59442;SDS011;45247;47.466;19.004;2022-09-19T09:09:23;1.58;;;0.80;;
59442;SDS011;45247;47.466;19.004;2022-09-19T09:12:06;1.48;;;0.75;;
59442;SDS011;45247;47.466;19.004;2022-09-19T09:14:47;1.77;;;0.65;;
59442;SDS011;45247;47.466;19.004;2022-09-19T09:17:46;4.22;;;0.65;;
59442;SDS011;45247;47.466;19.004;2022-09-19T09:20:47;3.38;;;0.63;;
59442;SDS011;45247;47.466;19.004;2022-09-19T09:23:22;3.78;;;0.80;;
59442;SDS011;45247;47.466;19.004;2022-09-19T09:25:54;4.65;;;0.90;;
59442;SDS011;45247;47.466;19.004;2022-09-19T09:28:28;0.93;;;0.50;;
59442;SDS011;45247;47.466;19.004;2022-09-19T09:31:04;1.08;;;0.63;;
59442;SDS011;45247;47.466;19.004;2022-09-19T09:33:45;1.25;;;0.55;;
59442;SDS011;45247;47.466;19.004;2022-09-19T09:36:19;1.73;;;0.60;;
59442;SDS011;45247;47.466;19.004;2022-09-19T09:38:52;2.83;;;0.50;;
59442;SDS011;45247;47.466;19.004;2022-09-19T09:44:29;2.47;;;0.60;;
59442;SDS011;45247;47.466;19.004;2022-09-19T09:47:14;1.83;;;0.57;;
59442;SDS011;45247;47.466;19.004;2022-09-19T09:49:54;1.88;;;0.90;;
59442;SDS011;45247;47.466;19.004;2022-09-19T09:52:32;1.90;;;0.80;;
59442;SDS011;45247;47.466;19.004;2022-09-19T09:55:14;3.88;;;0.80;;
59442;SDS011;45247;47.466;19.004;2022-09-19T09:58:16;3.78;;;1.20;;
59442;SDS011;45247;47.466;19.004;2022-09-19T10:00:50;7.45;;;0.73;;
59442;SDS011;45247;47.466;19.004;2022-09-19T10:03:44;2.08;;;0.73;;
59442;SDS011;45247;47.466;19.004;2022-09-19T10:06:20;0.93;;;0.52;;
59442;SDS011;45247;47.466;19.004;2022-09-19T10:08:55;4.88;;;0.73;;
59442;SDS011;45247;47.466;19.004;2022-09-19T10:11:36;1.20;;;0.60;;
59442;SDS011;45247;47.466;19.004;2022-09-19T10:14:29;1.95;;;0.60;;
59442;SDS011;45247;47.466;19.004;2022-09-19T10:16:58;0.98;;;0.60;;
59442;SDS011;45247;47.466;19.004;2022-09-19T10:19:29;2.25;;;0.60;;
59442;SDS011;45247;47.466;19.004;2022-09-19T10:22:02;2.58;;;0.70;;
59442;SDS011;45247;47.466;19.004;2022-09-19T10:24:42;1.95;;;0.60;;
59442;SDS011;45247;47.466;19.004;2022-09-19T10:27:15;0.98;;;0.60;;
59442;SDS011;45247;47.466;19.004;2022-09-19T10:29:49;1.45;;;0.60;;
59442;SDS011;45247;47.466;19.004;2022-09-19T10:32:21;1.33;;;0.50;;
59442;SDS011;45247;47.466;19.004;2022-09-19T10:34:51;2.43;;;0.70;;
59442;SDS011;45247;47.466;19.004;2022-09-19T10:37:22;1.85;;;0.95;;
59442;SDS011;45247;47.466;19.004;2022-09-19T10:39:58;0.88;;;0.68;;
59442;SDS011;45247;47.466;19.004;2022-09-19T10:42:32;0.50;;;0.50;;
59442;SDS011;45247;47.466;19.004;2022-09-19T10:45:15;0.68;;;0.63;;
59442;SDS011;45247;47.466;19.004;2022-09-19T10:47:46;1.15;;;0.70;;
59442;SDS011;45247;47.466;19.004;2022-09-19T10:50:16;1.75;;;0.70;;
59442;SDS011;45247;47.466;19.004;2022-09-19T10:52:47;1.73;;;0.52;;
59442;SDS011;45247;47.466;19.004;2022-09-19T10:55:18;1.35;;;0.63;;
59442;SDS011;45247;47.466;19.004;2022-09-19T10:57:50;1.55;;;0.60;;
59442;SDS011;45247;47.466;19.004;2022-09-19T11:00:30;1.58;;;0.60;;
59442;SDS011;45247;47.466;19.004;2022-09-19T11:03:01;3.72;;;0.60;;
59442;SDS011;45247;47.466;19.004;2022-09-19T11:05:32;0.82;;;0.50;;
59442;SDS011;45247;47.466;19.004;2022-09-19T11:08:04;1.25;;;0.68;;
59442;SDS011;45247;47.466;19.004;2022-09-19T11:10:50;1.08;;;0.73;;
59442;SDS011;45247;47.466;19.004;2022-09-19T11:13:19;2.78;;;0.90;;
59442;SDS011;45247;47.466;19.004;2022-09-19T11:16:02;4.32;;;0.90;;
59442;SDS011;45247;47.466;19.004;2022-09-19T11:18:53;7.05;;;1.25;;
59442;SDS011;45247;47.466;19.004;2022-09-19T11:21:37;0.65;;;0.57;;
59442;SDS011;45247;47.466;19.004;2022-09-19T11:27:24;0.70;;;0.70;;
59442;SDS011;45247;47.466;19.004;2022-09-19T11:30:03;0.93;;;0.70;;
59442;SDS011;45247;47.466;19.004;2022-09-19T11:32:48;1.15;;;0.70;;
59442;SDS011;45247;47.466;19.004;2022-09-19T11:35:30;1.48;;;0.85;;
59442;SDS011;45247;47.466;19.004;2022-09-19T11:38:10;2.53;;;0.93;;
59442;SDS011;45247;47.466;19.004;2022-09-19T11:41:14;2.25;;;0.80;;
59442;SDS011;45247;47.466;19.004;2022-09-19T11:44:00;1.10;;;0.70;;
59442;SDS011;45247;47.466;19.004;2022-09-19T11:46:45;1.50;;;1.00;;
59442;SDS011;45247;47.466;19.004;2022-09-19T11:49:31;1.48;;;1.00;;
59442;SDS011;45247;47.466;19.004;2022-09-19T11:52:33;1.50;;;1.00;;
59442;SDS011;45247;47.466;19.004;2022-09-19T11:55:11;1.02;;;0.90;;
59442;SDS011;45247;47.466;19.004;2022-09-19T11:57:52;1.85;;;1.00;;
59442;SDS011;45247;47.466;19.004;2022-09-19T12:00:30;0.85;;;0.70;;
59442;SDS011;45247;47.466;19.004;2022-09-19T12:03:07;0.80;;;0.80;;
59442;SDS011;45247;47.466;19.004;2022-09-19T12:05:58;2.30;;;0.75;;
59442;SDS011;45247;47.466;19.004;2022-09-19T12:08:48;0.77;;;0.70;;
59442;SDS011;45247;47.466;19.004;2022-09-19T12:11:26;1.00;;;0.90;;
59442;SDS011;45247;47.466;19.004;2022-09-19T12:14:07;1.13;;;0.80;;
59442;SDS011;45247;47.466;19.004;2022-09-19T12:16:49;0.70;;;0.55;;
59442;SDS011;45247;47.466;19.004;2022-09-19T12:19:22;0.63;;;0.60;;
59442;SDS011;45247;47.466;19.004;2022-09-19T12:21:55;1.70;;;0.60;;
59442;SDS011;45247;47.466;19.004;2022-09-19T12:24:28;0.52;;;0.45;;
59442;SDS011;45247;47.466;19.004;2022-09-19T12:27:20;0.50;;;0.50;;
59442;SDS011;45247;47.466;19.004;2022-09-19T12:29:57;0.38;;;0.38;;
59442;SDS011;45247;47.466;19.004;2022-09-19T12:32:33;1.65;;;0.68;;
59442;SDS011;45247;47.466;19.004;2022-09-19T12:35:13;0.50;;;0.50;;
59442;SDS011;45247;47.466;19.004;2022-09-19T12:37:51;3.00;;;1.05;;
59442;SDS011;45247;47.466;19.004;2022-09-19T12:40:32;1.08;;;0.65;;
59442;SDS011;45247;47.466;19.004;2022-09-19T12:43:13;1.90;;;0.65;;
59442;SDS011;45247;47.466;19.004;2022-09-19T12:45:54;1.60;;;0.73;;
59442;SDS011;45247;47.466;19.004;2022-09-19T12:48:28;0.50;;;0.50;;
59442;SDS011;45247;47.466;19.004;2022-09-19T12:51:06;0.50;;;0.50;;
59442;SDS011;45247;47.466;19.004;2022-09-19T12:53:39;2.28;;;0.73;;
59442;SDS011;45247;47.466;19.004;2022-09-19T12:56:12;2.95;;;0.60;;
59442;SDS011;45247;47.466;19.004;2022-09-19T12:58:50;1.38;;;1.05;;
59442;SDS011;45247;47.466;19.004;2022-09-19T13:01:33;0.70;;;0.52;;
59442;SDS011;45247;47.466;19.004;2022-09-19T13:04:08;0.75;;;0.60;;
59442;SDS011;45247;47.466;19.004;2022-09-19T13:06:52;1.08;;;0.60;;
59442;SDS011;45247;47.466;19.004;2022-09-19T13:09:24;1.00;;;0.68;;
59442;SDS011;45247;47.466;19.004;2022-09-19T13:12:01;0.63;;;0.60;;
59442;SDS011;45247;47.466;19.004;2022-09-19T13:14:38;0.77;;;0.60;;
59442;SDS011;45247;47.466;19.004;2022-09-19T13:17:16;3.47;;;0.57;;
59442;SDS011;45247;47.466;19.004;2022-09-19T13:20:02;2.55;;;1.05;;
59442;SDS011;45247;47.466;19.004;2022-09-19T13:22:59;0.55;;;0.50;;
59442;SDS011;45247;47.466;19.004;2022-09-19T13:25:47;1.70;;;0.80;;
59442;SDS011;45247;47.466;19.004;2022-09-19T13:28:25;1.25;;;0.80;;
59442;SDS011;45247;47.466;19.004;2022-09-19T13:31:00;0.80;;;0.60;;
59442;SDS011;45247;47.466;19.004;2022-09-19T13:33:42;0.60;;;0.60;;
59442;SDS011;45247;47.466;19.004;2022-09-19T13:36:14;1.67;;;0.60;;
59442;SDS011;45247;47.466;19.004;2022-09-19T13:38:45;4.43;;;0.80;;
59442;SDS011;45247;47.466;19.004;2022-09-19T13:41:18;0.70;;;0.70;;
59442;SDS011;45247;47.466;19.004;2022-09-19T13:43:55;0.60;;;0.50;;
59442;SDS011;45247;47.466;19.004;2022-09-19T13:46:31;1.08;;;0.70;;
59442;SDS011;45247;47.466;19.004;2022-09-19T13:49:10;0.93;;;0.73;;
59442;SDS011;45247;47.466;19.004;2022-09-19T13:51:51;1.23;;;0.70;;
59442;SDS011;45247;47.466;19.004;2022-09-19T13:57:25;0.80;;;0.70;;
59442;SDS011;45247;47.466;19.004;2022-09-19T13:59:56;1.50;;;0.80;;
59442;SDS011;45247;47.466;19.004;2022-09-19T14:02:28;2.03;;;0.70;;
59442;SDS011;45247;47.466;19.004;2022-09-19T14:05:03;2.25;;;0.73;;
59442;SDS011;45247;47.466;19.004;2022-09-19T14:07:42;2.08;;;0.90;;
59442;SDS011;45247;47.466;19.004;2022-09-19T14:10:37;1.00;;;0.80;;
59442;SDS011;45247;47.466;19.004;2022-09-19T14:13:33;1.92;;;0.80;;
59442;SDS011;45247;47.466;19.004;2022-09-19T14:18:57;2.53;;;1.10;;
59442;SDS011;45247;47.466;19.004;2022-09-19T14:24:30;1.33;;;0.90;;
59442;SDS011;45247;47.466;19.004;2022-09-19T14:27:12;1.08;;;0.98;;
59442;SDS011;45247;47.466;19.004;2022-09-19T14:29:55;1.75;;;0.90;;
59442;SDS011;45247;47.466;19.004;2022-09-19T14:32:30;0.93;;;0.85;;
59442;SDS011;45247;47.466;19.004;2022-09-19T14:41:02;1.67;;;0.80;;
59442;SDS011;45247;47.466;19.004;2022-09-19T14:43:47;0.85;;;0.80;;
59442;SDS011;45247;47.466;19.004;2022-09-19T14:46:39;0.65;;;0.65;;
59442;SDS011;45247;47.466;19.004;2022-09-19T14:49:18;10.52;;;1.08;;
59442;SDS011;45247;47.466;19.004;2022-09-19T14:51:56;0.95;;;0.77;;
59442;SDS011;45247;47.466;19.004;2022-09-19T14:54:30;1.38;;;0.80;;
59442;SDS011;45247;47.466;19.004;2022-09-19T14:57:05;1.30;;;0.80;;
59442;SDS011;45247;47.466;19.004;2022-09-19T14:59:41;1.00;;;0.70;;
59442;SDS011;45247;47.466;19.004;2022-09-19T15:02:21;0.73;;;0.57;;
59442;SDS011;45247;47.466;19.004;2022-09-19T15:04:56;0.95;;;0.60;;
59442;SDS011;45247;47.466;19.004;2022-09-19T15:07:27;2.33;;;0.85;;
59442;SDS011;45247;47.466;19.004;2022-09-19T15:09:58;1.00;;;0.63;;
59442;SDS011;45247;47.466;19.004;2022-09-19T15:12:28;1.33;;;0.85;;
59442;SDS011;45247;47.466;19.004;2022-09-19T15:14:58;1.73;;;1.00;;
59442;SDS011;45247;47.466;19.004;2022-09-19T15:17:27;0.82;;;0.70;;
59442;SDS011;45247;47.466;19.004;2022-09-19T15:19:57;1.67;;;0.70;;
59442;SDS011;45247;47.466;19.004;2022-09-19T15:22:40;1.25;;;0.95;;
59442;SDS011;45247;47.466;19.004;2022-09-19T15:25:16;2.25;;;0.90;;
59442;SDS011;45247;47.466;19.004;2022-09-19T15:27:48;0.60;;;0.55;;
59442;SDS011;45247;47.466;19.004;2022-09-19T15:30:19;3.65;;;0.73;;
59442;SDS011;45247;47.466;19.004;2022-09-19T15:32:49;1.02;;;0.70;;
59442;SDS011;45247;47.466;19.004;2022-09-19T15:35:20;0.60;;;0.60;;
59442;SDS011;45247;47.466;19.004;2022-09-19T15:40:24;0.82;;;0.60;;
59442;SDS011;45247;47.466;19.004;2022-09-19T15:42:53;1.38;;;0.73;;
59442;SDS011;45247;47.466;19.004;2022-09-19T15:45:34;1.52;;;0.60;;
59442;SDS011;45247;47.466;19.004;2022-09-19T15:48:07;5.13;;;0.80;;